Hub


Voltar

 INFORMAÇÕES METEOROLÓGICAS

METAR FOR SBES


ADDS - METARS form results

(1750 UTC 19 July 2019)
Data provider http://aviationweather.gov/metar/data/
 
METAR text: SBES 191700Z 07014KT 9999 FEW020 SCT040 22/14 Q1025
Conditions at: SBES (SAO PEDRO DA ALD, BR) observed 1700 UTC 19 July 2019
Temperature: 22.0°C (72°F)
Dewpoint: 14.0°C (57°F) [RH = 60%]
Pressure (altimeter): 30.27 inches Hg (1025.0 mb)
Winds: from the ENE (70 degrees) at 16 MPH (14 knots; 7.2 m/s)
Visibility: 6 or more miles (10+ km)
Ceiling: at least 12,000 feet AGL
Clouds: few clouds at 2000 feet AGL
scattered clouds at 4000 feet AGL
Weather: no significant weather observed at this time


 MAPA DO AEROPORTO


 INFORMAÇÕES DA PISTA

Pista 7 Tamanho da pista 5906 ft Largura da pista 92 ft
Elevação da pista 0 ft Ranhura da pista 0 ft Proa da pista 0
Pista 25 Tamanho da pista 5906 ft Largura da pista 92 ft
Elevação da pista 0 ft Ranhura da pista 0 ft Proa da pista 0

 FREQUÊNCIAS DO AEROPORTO

Tipo APP Nome ALDEIA APP Frequência 119.45 MHZ
Tipo GND Nome GND Frequência 121.9 MHZ
Tipo TWR Nome ALDEIA TWR Frequência 118.3 MHZ

 AUXÍLIOS DE NAVEGAÇÃO PRÓXIMOS AO AEROPORTO

Tipo VOR-DME Nome Aldeia Frequência 112100 KHZ
Tipo NDB Nome Aldeia Frequência 345 KHZ